Time;durP1;ratioP1;P1;durP2;ratioP2;P2;SDS_P1;SDS_P2;PMS_P1;PMS_P2;Temp;Humidity;BMP_temperature;BMP_pressure;BME280_temperature;BME280_humidity;BME280_pressure;Samples;Min_cycle;Max_cycle;Signal;HPM_P1;HPM_P2
2022/08/07 00:01:00;;;;;;;0.88;0.70;;;24.30;41.50;;;;;;5014149;28;88723;-78
2022/08/07 00:03:27;;;;;;;1.38;0.88;;;24.30;41.70;;;;;;5014036;28;87541;-79
2022/08/07 00:05:53;;;;;;;0.73;0.63;;;24.20;41.50;;;;;;5014115;28;89060;-78
2022/08/07 00:08:21;;;;;;;1.23;0.90;;;24.30;41.50;;;;;;5013272;28;90163;-78
2022/08/07 00:10:50;;;;;;;1.60;1.00;;;24.30;41.50;;;;;;5014414;28;87000;-78
2022/08/07 00:13:17;;;;;;;1.10;0.98;;;24.20;41.40;;;;;;5013449;28;87264;-79
2022/08/07 00:15:44;;;;;;;1.17;0.80;;;24.20;41.70;;;;;;5014148;28;87562;-78
2022/08/07 00:18:10;;;;;;;1.15;0.80;;;24.20;41.80;;;;;;5013136;28;87079;-78
2022/08/07 00:20:37;;;;;;;1.75;0.82;;;24.20;41.80;;;;;;5013608;28;87404;-78
2022/08/07 00:23:07;;;;;;;1.15;0.90;;;24.20;41.90;;;;;;5013743;28;87099;-78
2022/08/07 00:25:33;;;;;;;1.13;0.73;;;24.20;41.90;;;;;;5010902;28;92318;-78
2022/08/07 00:27:59;;;;;;;1.67;0.77;;;24.20;42.00;;;;;;5013823;28;89057;-78
2022/08/07 00:30:25;;;;;;;0.52;0.52;;;24.20;41.90;;;;;;5013742;28;86926;-78
2022/08/07 00:32:51;;;;;;;1.48;0.77;;;24.20;42.10;;;;;;5013388;28;87310;-78
2022/08/07 00:35:18;;;;;;;1.00;0.77;;;24.20;42.10;;;;;;5013728;28;87782;-78
2022/08/07 00:37:44;;;;;;;1.98;1.08;;;24.20;42.10;;;;;;5013050;28;87126;-79
2022/08/07 00:40:11;;;;;;;1.00;0.80;;;24.20;42.00;;;;;;5013040;28;87671;-78
2022/08/07 00:42:36;;;;;;;0.80;0.60;;;24.20;42.00;;;;;;5013838;28;86590;-78
2022/08/07 00:45:03;;;;;;;1.20;0.85;;;24.20;42.20;;;;;;5013428;28;87890;-78
2022/08/07 00:47:29;;;;;;;1.58;0.73;;;24.20;42.20;;;;;;5013142;28;87926;-78
2022/08/07 00:49:55;;;;;;;0.73;0.65;;;24.20;42.20;;;;;;5012310;28;88085;-78
2022/08/07 00:52:20;;;;;;;0.80;0.80;;;24.20;42.20;;;;;;5011362;28;87466;-78
2022/08/07 00:54:47;;;;;;;1.65;1.00;;;24.10;42.20;;;;;;5013273;28;88123;-78
2022/08/07 00:57:14;;;;;;;1.50;0.88;;;24.20;42.30;;;;;;5013463;28;88392;-78
2022/08/07 00:59:40;;;;;;;0.80;0.80;;;24.10;42.20;;;;;;5011882;28;87329;-78
2022/08/07 01:02:07;;;;;;;0.98;0.80;;;24.10;42.20;;;;;;5011414;28;87426;-78
2022/08/07 01:04:33;;;;;;;1.25;0.85;;;24.20;42.30;;;;;;5012701;28;89832;-79
2022/08/07 01:07:00;;;;;;;0.82;0.70;;;24.20;42.50;;;;;;5012985;28;87232;-78
2022/08/07 01:09:26;;;;;;;1.02;0.80;;;24.20;42.40;;;;;;5013097;28;86968;-78
2022/08/07 01:11:52;;;;;;;1.10;0.70;;;24.10;42.50;;;;;;5014201;28;87180;-78
2022/08/07 01:14:22;;;;;;;0.85;0.80;;;24.10;42.50;;;;;;5011525;28;90168;-78
2022/08/07 01:16:49;;;;;;;1.08;0.70;;;24.20;42.60;;;;;;5012222;28;89203;-78
2022/08/07 01:19:16;;;;;;;0.88;0.80;;;24.10;42.60;;;;;;5012250;28;87250;-78
2022/08/07 01:21:42;;;;;;;1.08;0.73;;;24.10;42.50;;;;;;5011683;28;88359;-78
2022/08/07 01:24:08;;;;;;;0.85;0.75;;;24.10;42.60;;;;;;5011082;28;90772;-78
2022/08/07 01:26:34;;;;;;;1.27;0.90;;;24.10;42.60;;;;;;5011538;28;87916;-79
2022/08/07 01:29:00;;;;;;;1.08;0.80;;;24.10;42.50;;;;;;5012630;28;87000;-78
2022/08/07 01:31:30;;;;;;;0.80;0.73;;;24.10;42.60;;;;;;5013742;28;86655;-78
2022/08/07 01:33:59;;;;;;;2.05;0.80;;;24.10;42.50;;;;;;5012024;28;90673;-78
2022/08/07 01:36:27;;;;;;;;;;;24.10;42.50;;;;;;5012955;28;88340;-78
2022/08/07 01:38:53;;;;;;;1.13;0.90;;;24.10;42.60;;;;;;5013812;28;87912;-78
2022/08/07 01:41:20;;;;;;;1.63;1.10;;;24.10;42.60;;;;;;5012177;28;87492;-79
2022/08/07 01:43:47;;;;;;;1.63;1.08;;;24.10;42.60;;;;;;5012658;28;89936;-78
2022/08/07 01:46:14;;;;;;;1.48;1.00;;;24.10;42.60;;;;;;5011979;28;87187;-78
2022/08/07 01:48:41;;;;;;;0.70;0.60;;;24.10;42.70;;;;;;5012607;28;88469;-78
2022/08/07 01:51:24;;;;;;;1.25;0.95;;;24.10;42.60;;;;;;5012851;28;87060;-78
2022/08/07 01:53:56;;;;;;;1.58;1.08;;;24.00;42.60;;;;;;5011632;28;88412;-78
2022/08/07 01:56:30;;;;;;;0.82;0.80;;;24.10;42.70;;;;;;5012424;28;87119;-78
2022/08/07 01:59:10;;;;;;;0.90;0.90;;;24.10;42.70;;;;;;5012155;28;87387;-79
2022/08/07 02:01:42;;;;;;;1.17;0.70;;;24.10;42.80;;;;;;5011870;28;87260;-79
2022/08/07 02:04:19;;;;;;;0.95;0.85;;;24.00;42.60;;;;;;5011383;28;91160;-78
2022/08/07 02:06:45;;;;;;;0.82;0.80;;;24.00;42.60;;;;;;5011737;28;90668;-78
2022/08/07 02:09:16;;;;;;;0.88;0.82;;;24.00;43.40;;;;;;5012351;28;86984;-78
2022/08/07 02:11:43;;;;;;;0.65;0.65;;;24.00;42.70;;;;;;5013785;28;86952;-78
2022/08/07 02:14:10;;;;;;;0.95;0.85;;;24.00;42.90;;;;;;5011895;28;88618;-78
2022/08/07 02:16:38;;;;;;;0.70;0.70;;;24.00;42.70;;;;;;5011710;28;88645;-78
2022/08/07 02:19:07;;;;;;;0.80;0.80;;;24.00;42.80;;;;;;5012458;28;87163;-79
2022/08/07 02:21:36;;;;;;;1.00;0.80;;;24.00;42.90;;;;;;5009870;28;88977;-78
2022/08/07 02:24:03;;;;;;;1.15;0.80;;;24.00;43.00;;;;;;5011433;28;88550;-78
2022/08/07 02:26:29;;;;;;;1.10;0.70;;;24.00;43.10;;;;;;5011038;28;87890;-78
2022/08/07 02:28:56;;;;;;;1.02;0.85;;;24.00;43.00;;;;;;5011972;28;88525;-78
2022/08/07 02:31:22;;;;;;;0.70;0.70;;;24.00;43.10;;;;;;5012099;28;87444;-78
2022/08/07 02:33:51;;;;;;;0.82;0.80;;;24.00;43.00;;;;;;5010360;28;89823;-78
2022/08/07 02:36:18;;;;;;;1.38;0.73;;;24.00;43.20;;;;;;5011447;28;88393;-78
2022/08/07 02:38:44;;;;;;;0.60;0.60;;;24.00;43.20;;;;;;5011867;28;87058;-78
2022/08/07 02:41:12;;;;;;;0.70;0.70;;;24.00;43.20;;;;;;5012199;28;88327;-78
2022/08/07 02:43:39;;;;;;;1.17;0.77;;;24.00;43.20;;;;;;5011961;28;87424;-79
2022/08/07 02:46:07;;;;;;;1.70;1.05;;;24.00;43.30;;;;;;5012008;28;87868;-78
2022/08/07 02:48:33;;;;;;;2.05;0.80;;;24.00;43.20;;;;;;5011500;28;86891;-78
2022/08/07 02:51:05;;;;;;;0.77;0.70;;;23.90;43.30;;;;;;5011163;28;87703;-78
2022/08/07 02:53:34;;;;;;;0.80;0.77;;;24.00;43.50;;;;;;5010467;28;89210;-78
2022/08/07 02:56:03;;;;;;;0.77;0.60;;;23.90;43.30;;;;;;5010509;28;90237;-78
2022/08/07 02:58:30;;;;;;;0.85;0.80;;;24.00;43.30;;;;;;5011271;28;87666;-78
2022/08/07 03:00:58;;;;;;;0.60;0.60;;;23.90;43.40;;;;;;5011383;28;88797;-78
2022/08/07 03:03:28;;;;;;;0.65;0.60;;;24.00;43.50;;;;;;5014562;28;88202;-78
2022/08/07 03:05:56;;;;;;;1.35;0.80;;;24.00;43.40;;;;;;5014320;28;87519;-78
2022/08/07 03:08:23;;;;;;;0.88;0.80;;;24.00;43.40;;;;;;5014620;28;87334;-78
2022/08/07 03:10:49;;;;;;;0.63;0.63;;;24.00;43.50;;;;;;5014707;28;86810;-78
2022/08/07 03:13:15;;;;;;;1.15;0.88;;;24.00;43.70;;;;;;5014108;28;89553;-78
2022/08/07 03:15:42;;;;;;;1.10;0.82;;;23.90;43.40;;;;;;5015431;28;87170;-78
2022/08/07 03:18:08;;;;;;;1.02;0.90;;;23.90;43.50;;;;;;5013944;28;88441;-78
2022/08/07 03:20:34;;;;;;;0.70;0.70;;;23.90;43.50;;;;;;5014775;28;87530;-78
2022/08/07 03:23:01;;;;;;;0.70;0.70;;;23.90;43.60;;;;;;5014773;28;88147;-78
2022/08/07 03:25:30;;;;;;;0.93;0.82;;;23.90;43.50;;;;;;5014217;28;87670;-78
2022/08/07 03:27:56;;;;;;;1.27;0.70;;;23.90;43.60;;;;;;5014997;28;87146;-78
2022/08/07 03:30:22;;;;;;;0.73;0.73;;;23.90;43.60;;;;;;5030736;28;87986;-79
2022/08/07 03:32:50;;;;;;;0.95;0.90;;;23.90;43.70;;;;;;5031503;28;87575;-78
2022/08/07 03:35:20;;;;;;;1.10;0.90;;;23.90;43.70;;;;;;5032301;28;87647;-78
2022/08/07 03:37:52;;;;;;;1.02;0.88;;;23.90;43.70;;;;;;5032617;28;86984;-78
2022/08/07 03:40:18;;;;;;;0.55;0.55;;;23.90;43.70;;;;;;5015617;28;87358;-79
2022/08/07 03:42:44;;;;;;;1.70;1.15;;;23.90;43.60;;;;;;5031731;28;89344;-79
2022/08/07 03:45:10;;;;;;;0.90;0.90;;;23.90;43.70;;;;;;4997067;28;88923;-78
2022/08/07 03:47:36;;;;;;;0.85;0.70;;;23.80;43.70;;;;;;5032309;28;87377;-78
2022/08/07 03:50:02;;;;;;;0.65;0.65;;;23.90;43.80;;;;;;5031736;28;88095;-78
2022/08/07 03:52:29;;;;;;;0.70;0.70;;;23.90;43.70;;;;;;5031450;28;87688;-78
2022/08/07 03:54:58;;;;;;;1.83;1.10;;;23.90;43.80;;;;;;5030584;28;88203;-79
2022/08/07 03:57:30;;;;;;;0.70;0.70;;;23.80;43.90;;;;;;5031889;28;87058;-78
2022/08/07 03:59:55;;;;;;;0.93;0.80;;;23.90;44.40;;;;;;5031165;28;87070;-78
2022/08/07 04:02:22;;;;;;;0.93;0.90;;;23.90;43.90;;;;;;5015895;28;87655;-78
2022/08/07 04:04:48;;;;;;;0.93;0.80;;;23.80;44.00;;;;;;5013645;28;87775;-78
2022/08/07 04:07:18;;;;;;;1.70;0.88;;;23.80;43.90;;;;;;5011479;28;88145;-78
2022/08/07 04:09:45;;;;;;;1.10;0.85;;;23.80;43.90;;;;;;5014475;28;86992;-78
2022/08/07 04:12:12;;;;;;;0.95;0.70;;;23.90;43.90;;;;;;5015690;28;87472;-78
2022/08/07 04:14:38;;;;;;;1.02;0.80;;;23.80;44.00;;;;;;5014067;28;87573;-79
2022/08/07 04:17:04;;;;;;;0.80;0.63;;;23.80;44.00;;;;;;5014632;28;87017;-78
2022/08/07 04:19:30;;;;;;;0.80;0.80;;;23.80;44.20;;;;;;5014173;28;87352;-78
2022/08/07 04:21:56;;;;;;;1.40;0.82;;;23.80;44.20;;;;;;5013305;28;88519;-78
2022/08/07 04:24:22;;;;;;;1.10;1.00;;;23.80;44.10;;;;;;5013470;28;87528;-78
2022/08/07 04:26:48;;;;;;;0.80;0.80;;;23.80;44.10;;;;;;5014188;28;87766;-78
2022/08/07 04:29:13;;;;;;;0.70;0.70;;;23.80;44.70;;;;;;5012631;28;88884;-78
2022/08/07 04:31:40;;;;;;;0.70;0.70;;;23.80;44.10;;;;;;5013504;28;88527;-79
2022/08/07 04:34:06;;;;;;;1.20;0.90;;;23.80;44.10;;;;;;5014101;28;89675;-77
2022/08/07 04:36:33;;;;;;;0.77;0.70;;;23.80;44.30;;;;;;5013410;28;87188;-78
2022/08/07 04:38:59;;;;;;;0.60;0.60;;;23.80;44.20;;;;;;5013047;28;87927;-78
2022/08/07 04:41:25;;;;;;;0.80;0.80;;;23.80;44.90;;;;;;5013901;28;87425;-78
2022/08/07 04:43:52;;;;;;;1.00;0.93;;;23.80;44.20;;;;;;5013838;28;87471;-78
2022/08/07 04:46:56;;;;;;;1.50;0.65;;;23.80;44.20;;;;;;5012809;28;87592;-78
2022/08/07 04:49:40;;;;;;;0.68;0.65;;;23.80;44.20;;;;;;5013283;28;86319;-79
2022/08/07 04:52:22;;;;;;;0.95;0.80;;;23.80;44.30;;;;;;5013255;28;89776;-78
2022/08/07 04:55:03;;;;;;;1.00;0.85;;;23.80;44.30;;;;;;5011495;28;88985;-78
2022/08/07 04:57:51;;;;;;;0.95;0.80;;;23.80;44.20;;;;;;5012488;28;87836;-78
2022/08/07 05:00:20;;;;;;;0.93;0.70;;;23.80;44.20;;;;;;5012586;28;87448;-78
2022/08/07 05:03:01;;;;;;;1.73;0.90;;;23.90;44.30;;;;;;5012657;28;87527;-78
2022/08/07 05:05:39;;;;;;;1.08;0.93;;;23.90;44.40;;;;;;5011630;28;88245;-78
2022/08/07 05:08:20;;;;;;;1.58;1.35;;;23.90;44.70;;;;;;5013245;28;87499;-79
2022/08/07 05:10:55;;;;;;;2.22;1.52;;;23.90;44.70;;;;;;5012488;28;87514;-78
2022/08/07 05:13:37;;;;;;;2.08;1.65;;;23.90;44.80;;;;;;5013459;28;87713;-78
2022/08/07 05:16:06;;;;;;;1.65;1.15;;;24.00;44.80;;;;;;5012320;28;88366;-78
2022/08/07 05:18:38;;;;;;;1.23;1.13;;;24.00;44.60;;;;;;5013222;28;87363;-78
2022/08/07 05:21:08;;;;;;;1.52;1.40;;;24.00;44.50;;;;;;5009975;28;89437;-78
2022/08/07 05:23:57;;;;;;;3.58;1.55;;;24.00;44.50;;;;;;5012466;28;90029;-78
2022/08/07 05:26:25;;;;;;;2.85;1.50;;;24.10;44.50;;;;;;5011841;28;87854;-79
2022/08/07 05:28:53;;;;;;;4.43;1.40;;;24.20;44.40;;;;;;5011671;28;87601;-78
2022/08/07 05:31:22;;;;;;;3.58;1.67;;;24.20;44.50;;;;;;5012589;28;88216;-78
2022/08/07 05:33:49;;;;;;;3.63;1.50;;;24.20;43.70;;;;;;5012150;28;86963;-78
2022/08/07 05:36:17;;;;;;;2.35;1.25;;;24.30;44.00;;;;;;5012471;28;88839;-78
2022/08/07 05:38:44;;;;;;;3.97;1.50;;;24.30;43.50;;;;;;5011474;28;87352;-78
2022/08/07 05:41:11;;;;;;;1.50;0.98;;;24.20;43.60;;;;;;5012380;28;87517;-78
2022/08/07 05:43:38;;;;;;;3.05;1.27;;;24.20;43.90;;;;;;5011287;28;87651;-78
2022/08/07 05:46:04;;;;;;;3.60;1.52;;;24.20;43.90;;;;;;5012340;28;88036;-78
2022/08/07 05:48:30;;;;;;;6.70;1.90;;;24.20;44.30;;;;;;5012130;28;88422;-78
2022/08/07 05:50:58;;;;;;;8.32;2.13;;;24.20;44.30;;;;;;5012328;28;87683;-78
2022/08/07 05:53:23;;;;;;;4.95;1.80;;;24.10;44.10;;;;;;5011133;28;87132;-78
2022/08/07 05:55:51;;;;;;;2.53;1.50;;;24.10;44.10;;;;;;5012117;28;87304;-78
2022/08/07 05:58:17;;;;;;;2.58;1.35;;;24.10;44.10;;;;;;5011698;28;86935;-78
2022/08/07 06:00:47;;;;;;;4.07;1.52;;;24.20;44.30;;;;;;5011482;28;87005;-78
2022/08/07 06:03:13;;;;;;;;;;;24.10;44.40;;;;;;5011847;28;88614;-78
2022/08/07 06:05:40;;;;;;;5.15;1.75;;;24.20;44.30;;;;;;5013606;28;86945;-78
2022/08/07 06:08:07;;;;;;;4.68;1.75;;;24.20;44.40;;;;;;5011714;28;87292;-78
2022/08/07 06:10:33;;;;;;;7.70;1.90;;;24.20;44.30;;;;;;5011686;28;87959;-79
2022/08/07 06:13:01;;;;;;;45.30;11.63;;;24.20;44.50;;;;;;5011361;28;88666;-78
2022/08/07 06:15:28;;;;;;;39.80;8.07;;;24.20;44.70;;;;;;5011439;28;88732;-78
2022/08/07 06:17:54;;;;;;;21.23;4.97;;;24.20;44.40;;;;;;5012617;28;87999;-77
2022/08/07 06:20:21;;;;;;;11.90;3.78;;;24.00;44.10;;;;;;5009596;28;90225;-78
2022/08/07 06:22:48;;;;;;;9.60;3.55;;;24.00;44.30;;;;;;5011298;28;88430;-78
2022/08/07 06:25:13;;;;;;;9.48;3.33;;;23.90;44.50;;;;;;5010639;28;87389;-78
2022/08/07 06:27:39;;;;;;;4.57;2.40;;;23.90;44.70;;;;;;5012042;28;87019;-78
2022/08/07 06:30:05;;;;;;;3.80;2.50;;;23.90;44.40;;;;;;5012806;28;87820;-79
2022/08/07 06:32:31;;;;;;;5.32;2.83;;;23.80;44.60;;;;;;5012383;28;87026;-79
2022/08/07 06:34:59;;;;;;;5.13;2.65;;;23.80;44.50;;;;;;5009377;28;87597;-79
2022/08/07 06:37:25;;;;;;;3.78;2.40;;;23.80;44.70;;;;;;5008839;28;88518;-78
2022/08/07 06:39:52;;;;;;;4.15;2.70;;;23.70;44.90;;;;;;5009100;28;88601;-78
2022/08/07 06:42:28;;;;;;;5.15;2.75;;;23.80;45.00;;;;;;5010409;28;87548;-78
2022/08/07 06:44:55;;;;;;;3.67;2.72;;;23.80;44.90;;;;;;5010564;28;87049;-78
2022/08/07 06:47:21;;;;;;;4.40;2.60;;;23.70;44.90;;;;;;5010640;28;87050;-79
2022/08/07 06:49:47;;;;;;;4.32;2.47;;;23.80;45.10;;;;;;5024141;28;87069;-78
2022/08/07 06:52:16;;;;;;;3.47;2.60;;;23.80;45.20;;;;;;5009553;28;88218;-77
2022/08/07 06:54:43;;;;;;;3.72;2.85;;;23.80;45.20;;;;;;4992554;27;87952;-77
2022/08/07 06:57:10;;;;;;;9.20;3.13;;;23.80;45.00;;;;;;5011474;28;86961;-78
2022/08/07 06:59:39;;;;;;;34.92;7.57;;;23.80;45.30;;;;;;5011067;28;88032;-78
2022/08/07 07:02:07;;;;;;;;;;;23.80;46.10;;;;;;5011139;28;89034;-78
2022/08/07 07:04:32;;;;;;;16.58;4.40;;;23.70;45.50;;;;;;5012540;28;88803;-78
2022/08/07 07:06:59;;;;;;;10.27;3.58;;;23.70;45.50;;;;;;5011163;28;86943;-78
2022/08/07 07:09:28;;;;;;;4.85;3.20;;;23.80;45.80;;;;;;5010837;28;87137;-79
2022/08/07 07:12:07;;;;;;;7.22;3.22;;;23.80;45.70;;;;;;5011546;28;89077;-78
2022/08/07 07:14:57;;;;;;;4.63;3.15;;;23.80;45.70;;;;;;5010400;28;88682;-78
2022/08/07 07:17:34;;;;;;;6.97;2.97;;;23.80;45.60;;;;;;5011418;28;87482;-79
2022/08/07 07:20:06;;;;;;;5.18;3.00;;;23.80;45.80;;;;;;5011004;28;88480;-78
2022/08/07 07:22:32;;;;;;;5.85;3.15;;;23.90;45.90;;;;;;5010647;28;89758;-79
2022/08/07 07:25:00;;;;;;;3.78;2.83;;;23.80;46.30;;;;;;5011248;28;87812;-78
2022/08/07 07:27:31;;;;;;;4.97;3.15;;;23.70;46.20;;;;;;5010311;28;89361;-77
2022/08/07 07:30:01;;;;;;;5.32;3.17;;;23.70;46.30;;;;;;5009238;28;87932;-78
2022/08/07 07:32:31;;;;;;;6.10;2.97;;;23.70;46.30;;;;;;5010939;28;89093;-78
2022/08/07 07:34:59;;;;;;;6.53;2.75;;;23.70;46.60;;;;;;5010277;28;87858;-78
2022/08/07 07:37:27;;;;;;;3.38;3.00;;;23.80;46.60;;;;;;5010644;28;87335;-78
2022/08/07 07:39:57;;;;;;;7.47;3.13;;;23.80;46.40;;;;;;5010949;28;86894;-78
2022/08/07 07:42:25;;;;;;;8.65;3.42;;;23.80;46.60;;;;;;5010570;28;87521;-77
2022/08/07 07:44:52;;;;;;;4.50;3.33;;;23.80;46.60;;;;;;5010741;28;89529;-78
2022/08/07 07:47:19;;;;;;;5.18;3.35;;;23.90;46.80;;;;;;5010982;28;86882;-78
2022/08/07 07:49:47;;;;;;;5.63;3.30;;;23.90;46.80;;;;;;5013888;28;86970;-78
2022/08/07 07:52:14;;;;;;;5.72;3.17;;;24.00;46.90;;;;;;5013976;28;88636;-78
2022/08/07 07:54:41;;;;;;;5.65;3.20;;;24.00;46.20;;;;;;5013512;28;88843;-78
2022/08/07 07:57:09;;;;;;;4.75;3.00;;;24.00;45.90;;;;;;5014626;28;87580;-78
2022/08/07 07:59:37;;;;;;;7.82;3.65;;;23.90;45.80;;;;;;5013504;28;87023;-78
2022/08/07 08:02:04;;;;;;;4.90;3.00;;;24.00;46.20;;;;;;5012087;28;92225;-78
2022/08/07 08:04:32;;;;;;;3.70;2.83;;;23.90;46.50;;;;;;5012932;28;88233;-78
2022/08/07 08:07:00;;;;;;;5.63;3.03;;;23.90;46.10;;;;;;5013991;28;87301;-78
2022/08/07 08:09:27;;;;;;;5.75;3.05;;;24.00;46.20;;;;;;5014213;28;86969;-78
2022/08/07 08:11:53;;;;;;;3.53;3.17;;;23.90;46.00;;;;;;5013516;28;88664;-78
2022/08/07 08:14:20;;;;;;;3.78;2.70;;;23.90;46.10;;;;;;5013339;28;88356;-78
2022/08/07 08:16:47;;;;;;;5.32;3.13;;;23.90;46.10;;;;;;5012496;28;88799;-78
2022/08/07 08:19:16;;;;;;;4.00;2.55;;;23.90;46.00;;;;;;5013286;28;87289;-78
2022/08/07 08:27:30;;;;;;;3.53;2.47;;;24.00;45.80;;;;;;5012976;28;87084;-77
2022/08/07 08:30:01;;;;;;;4.90;2.72;;;24.00;45.30;;;;;;5012942;28;87319;-77
2022/08/07 08:32:30;;;;;;;6.43;2.50;;;24.00;45.40;;;;;;5013642;28;88208;-77
2022/08/07 08:34:57;;;;;;;6.65;2.38;;;24.00;45.50;;;;;;5013204;28;87186;-77
2022/08/07 08:37:26;;;;;;;4.40;2.20;;;24.00;45.60;;;;;;5014485;28;87501;-77
2022/08/07 08:39:54;;;;;;;2.70;2.03;;;23.90;45.70;;;;;;5012818;28;87382;-77
2022/08/07 08:42:29;;;;;;;4.35;2.42;;;24.00;45.70;;;;;;5010924;28;88995;-77
2022/08/07 08:45:17;;;;;;;3.38;1.98;;;24.00;45.70;;;;;;5013964;28;88999;-77
2022/08/07 08:47:54;;;;;;;3.97;1.92;;;24.00;45.80;;;;;;5012589;28;86995;-77
2022/08/07 08:50:23;;;;;;;6.82;2.03;;;24.00;45.90;;;;;;5012202;28;87142;-77
2022/08/07 08:53:05;;;;;;;6.43;2.08;;;24.00;45.60;;;;;;5012773;28;88059;-77
2022/08/07 08:55:38;;;;;;;4.25;1.85;;;24.00;45.70;;;;;;5012854;28;87596;-77
2022/08/07 08:58:17;;;;;;;2.78;2.00;;;24.10;45.30;;;;;;5028441;28;87782;-78
2022/08/07 09:00:50;;;;;;;5.30;2.27;;;24.20;44.40;;;;;;5012063;28;86814;-78
2022/08/07 09:03:28;;;;;;;7.75;3.13;;;24.20;44.40;;;;;;5013433;28;88472;-77
2022/08/07 09:06:03;;;;;;;15.20;3.60;;;24.20;44.70;;;;;;5012865;28;88543;-77
2022/08/07 09:08:56;;;;;;;11.63;3.38;;;24.20;44.60;;;;;;5011465;28;88481;-76
2022/08/07 09:11:48;;;;;;;9.15;2.70;;;24.20;44.50;;;;;;5011448;28;87522;-77
2022/08/07 09:14:25;;;;;;;4.60;2.00;;;24.20;44.10;;;;;;5012051;28;88644;-77
2022/08/07 09:17:16;;;;;;;3.60;2.17;;;24.30;43.10;;;;;;5012441;28;87234;-77
2022/08/07 09:20:14;;;;;;;5.35;1.90;;;24.30;42.70;;;;;;4996065;28;87038;-76
2022/08/07 09:22:52;;;;;;;2.80;1.67;;;24.20;43.10;;;;;;4928646;28;88059;-77
2022/08/07 09:25:25;;;;;;;3.70;1.67;;;24.20;43.20;;;;;;4929295;28;87697;-76
2022/08/07 09:28:05;;;;;;;5.53;1.70;;;24.20;42.70;;;;;;4930419;28;87418;-77
2022/08/07 09:31:05;;;;;;;3.35;1.58;;;24.20;42.30;;;;;;4929958;28;87807;-76
2022/08/07 09:33:48;;;;;;;2.83;1.30;;;24.20;41.90;;;;;;4930280;28;87141;-77
2022/08/07 09:36:20;;;;;;;3.35;1.50;;;24.20;42.30;;;;;;4929449;28;89697;-77
2022/08/07 09:38:50;;;;;;;3.72;1.23;;;24.10;42.20;;;;;;4929255;28;88841;-77
2022/08/07 09:41:50;;;;;;;2.80;1.40;;;24.20;42.70;;;;;;4929614;28;87725;-77
2022/08/07 09:44:35;;;;;;;3.20;1.30;;;24.20;43.00;;;;;;4929988;28;87455;-76
2022/08/07 09:47:04;;;;;;;3.22;1.40;;;24.20;42.20;;;;;;4928834;28;87802;-76
2022/08/07 09:49:48;;;;;;;9.63;2.35;;;24.20;42.50;;;;;;4928980;28;87901;-77
2022/08/07 09:52:20;;;;;;;45.85;12.77;;;24.20;42.00;;;;;;4930012;28;87569;-77
2022/08/07 09:55:03;;;;;;;50.80;13.55;;;24.30;42.50;;;;;;4929816;28;87189;-77
2022/08/07 09:57:54;;;;;;;26.65;6.70;;;24.30;42.50;;;;;;4944749;28;88617;-77
2022/08/07 10:00:23;;;;;;;20.08;6.03;;;24.30;41.60;;;;;;5010808;28;88224;-78
2022/08/07 10:03:19;;;;;;;15.27;4.82;;;24.30;40.70;;;;;;5011068;28;88222;-77
2022/08/07 10:06:09;;;;;;;14.30;4.15;;;24.30;41.20;;;;;;5010251;28;88350;-76
2022/08/07 10:09:15;;;;;;;6.82;2.95;;;24.40;40.60;;;;;;5010556;28;87974;-77
2022/08/07 10:12:14;;;;;;;7.88;3.10;;;24.40;40.70;;;;;;5010810;28;87033;-77
2022/08/07 10:15:07;;;;;;;7.18;2.38;;;24.30;40.30;;;;;;5008584;28;87530;-76
2022/08/07 10:17:58;;;;;;;10.38;2.55;;;24.30;40.00;;;;;;5010693;28;87078;-77
2022/08/07 10:20:29;;;;;;;14.15;3.28;;;24.30;40.20;;;;;;5008985;28;91717;-78
2022/08/07 10:22:58;;;;;;;5.72;2.30;;;24.30;40.80;;;;;;5012355;28;88045;-78
2022/08/07 10:25:54;;;;;;;5.75;2.08;;;24.30;40.70;;;;;;5012414;28;87734;-77
2022/08/07 10:28:46;;;;;;;5.80;2.25;;;24.30;40.70;;;;;;5010827;28;87494;-76
2022/08/07 10:31:31;;;;;;;5.20;2.03;;;24.30;41.10;;;;;;5010197;28;89085;-77
2022/08/07 10:34:16;;;;;;;4.78;1.80;;;24.30;41.20;;;;;;5010567;28;89804;-77
2022/08/07 10:37:40;;;;;;;7.20;2.13;;;24.30;41.30;;;;;;5010460;28;87667;-77
2022/08/07 10:40:20;;;;;;;5.20;2.25;;;24.20;41.60;;;;;;4928474;28;87573;-77
2022/08/07 10:43:01;;;;;;;6.95;1.80;;;24.20;41.90;;;;;;4911628;28;89534;-77
2022/08/07 10:45:36;;;;;;;4.75;1.77;;;24.10;42.10;;;;;;4928639;28;88600;-77
2022/08/07 10:48:20;;;;;;;8.05;2.50;;;24.10;42.30;;;;;;4929850;28;87543;-77
2022/08/07 10:51:00;;;;;;;5.93;2.05;;;24.10;42.70;;;;;;4927964;28;86411;-77
2022/08/07 10:53:48;;;;;;;9.15;2.72;;;24.10;42.80;;;;;;4928511;28;87886;-76
2022/08/07 10:57:05;;;;;;;10.83;2.57;;;24.20;42.90;;;;;;4832780;29;88153;-76
2022/08/07 11:00:04;;;;;;;8.68;2.30;;;24.20;43.00;;;;;;4777707;29;88204;-77
2022/08/07 11:02:36;;;;;;;11.90;2.72;;;24.20;43.10;;;;;;4778293;29;87793;-77
2022/08/07 11:05:26;;;;;;;13.75;2.70;;;24.10;43.20;;;;;;4778599;29;88363;-77
2022/08/07 11:08:07;;;;;;;11.73;2.58;;;24.20;43.20;;;;;;4776945;29;89795;-77
2022/08/07 11:10:42;;;;;;;9.05;2.20;;;24.20;43.10;;;;;;4776632;29;87538;-77
2022/08/07 11:13:15;;;;;;;11.57;2.70;;;24.30;42.90;;;;;;4777726;29;87603;-78
2022/08/07 11:15:43;;;;;;;12.45;2.70;;;24.20;43.00;;;;;;4785689;29;88684;-77
2022/08/07 11:18:26;;;;;;;11.67;2.80;;;24.20;43.20;;;;;;4852855;29;88307;-77
2022/08/07 11:21:06;;;;;;;13.88;2.97;;;24.20;43.10;;;;;;4852653;28;87850;-77
2022/08/07 11:23:38;;;;;;;20.38;4.10;;;24.20;43.10;;;;;;4852586;29;87089;-77
2022/08/07 11:26:19;;;;;;;18.75;4.10;;;24.20;43.10;;;;;;4855008;28;89183;-77
2022/08/07 11:28:51;;;;;;;22.73;5.63;;;24.10;43.20;;;;;;4855246;29;92310;-77
2022/08/07 11:31:41;;;;;;;35.88;7.45;;;24.10;43.20;;;;;;4855322;29;87584;-77
2022/08/07 11:34:30;;;;;;;42.58;8.38;;;24.10;43.20;;;;;;4979483;28;87547;-77
2022/08/07 11:37:01;;;;;;;38.03;8.88;;;24.10;43.40;;;;;;5012319;28;88286;-77
2022/08/07 11:39:58;;;;;;;45.58;9.02;;;24.10;43.50;;;;;;5013195;28;87547;-77
2022/08/07 11:42:38;;;;;;;37.35;9.02;;;24.10;43.50;;;;;;5013973;28;87254;-77
2022/08/07 11:45:24;;;;;;;37.03;8.70;;;24.10;43.40;;;;;;5002573;28;87937;-78
2022/08/07 11:48:09;;;;;;;42.08;8.80;;;24.10;43.70;;;;;;5012977;28;90400;-77
2022/08/07 11:51:00;;;;;;;45.05;8.98;;;24.10;43.80;;;;;;5013155;28;87622;-77
2022/08/07 11:54:05;;;;;;;30.80;8.10;;;24.10;43.70;;;;;;5013095;28;88494;-76
2022/08/07 11:56:57;;;;;;;41.63;8.90;;;24.10;43.60;;;;;;5013284;28;87384;-77
2022/08/07 11:59:59;;;;;;;30.65;7.78;;;24.10;43.60;;;;;;5012519;28;88196;-77
2022/08/07 12:03:12;;;;;;;29.65;7.88;;;24.10;43.80;;;;;;5012815;28;87648;-77
2022/08/07 12:05:40;;;;;;;31.48;8.23;;;24.10;43.70;;;;;;5013100;28;87327;-77
2022/08/07 12:08:08;;;;;;;28.52;8.13;;;24.10;43.90;;;;;;5012756;28;87247;-77
2022/08/07 12:11:02;;;;;;;27.55;7.95;;;24.10;44.00;;;;;;5011978;28;88087;-77
2022/08/07 12:13:41;;;;;;;30.98;7.95;;;24.10;43.90;;;;;;5012286;28;90913;-77
2022/08/07 12:16:24;;;;;;;24.45;7.10;;;24.10;43.90;;;;;;5026482;28;87566;-77
2022/08/07 12:19:27;;;;;;;26.20;7.20;;;24.10;44.10;;;;;;5011885;28;87186;-77
2022/08/07 12:22:23;;;;;;;29.90;7.68;;;24.10;44.20;;;;;;5028542;28;91332;-77
2022/08/07 12:27:59;;;;;;;23.48;6.53;;;24.10;44.20;;;;;;5029651;28;87064;-77
2022/08/07 12:30:30;;;;;;;26.48;6.68;;;24.10;44.30;;;;;;5029653;28;88066;-77
2022/08/07 12:33:10;;;;;;;24.58;6.60;;;24.10;44.10;;;;;;5029828;28;88614;-77
2022/08/07 12:35:36;;;;;;;26.02;6.78;;;24.10;44.30;;;;;;5028284;27;87805;-77
2022/08/07 12:38:03;;;;;;;23.77;6.13;;;24.10;44.20;;;;;;5029689;28;87358;-77
2022/08/07 12:40:31;;;;;;;26.88;7.20;;;24.20;44.40;;;;;;5030069;28;88308;-77
2022/08/07 12:43:02;;;;;;;22.10;6.50;;;24.20;44.50;;;;;;5028944;28;87388;-77
2022/08/07 12:45:38;;;;;;;21.10;6.85;;;24.20;44.40;;;;;;5028638;28;87811;-76
2022/08/07 12:48:31;;;;;;;22.80;7.22;;;24.20;44.40;;;;;;5029145;28;87919;-77
2022/08/07 12:51:13;;;;;;;20.73;6.50;;;24.20;44.40;;;;;;5028038;28;87642;-77
2022/08/07 12:53:56;;;;;;;21.67;5.90;;;24.20;44.60;;;;;;5016361;28;87687;-77
2022/08/07 12:56:35;;;;;;;23.55;6.50;;;24.20;44.40;;;;;;5012497;28;89781;-77
2022/08/07 12:59:03;;;;;;;;;;;24.20;44.50;;;;;;5009371;28;87292;-77
2022/08/07 13:02:04;;;;;;;21.30;6.57;;;24.20;44.50;;;;;;5012921;28;87801;-77
2022/08/07 13:05:05;;;;;;;22.85;6.45;;;24.30;45.30;;;;;;5011911;28;88153;-77
2022/08/07 13:07:49;;;;;;;17.17;5.90;;;24.30;44.40;;;;;;5012310;28;88981;-78
2022/08/07 13:10:40;;;;;;;17.63;5.35;;;24.30;44.30;;;;;;5012283;28;87109;-77
2022/08/07 13:13:24;;;;;;;22.50;6.03;;;24.30;44.50;;;;;;5012014;28;87493;-77
2022/08/07 13:16:06;;;;;;;16.95;4.88;;;24.40;44.80;;;;;;5011195;28;90847;-78
2022/08/07 13:18:56;;;;;;;16.88;5.75;;;24.40;45.00;;;;;;5012745;28;89294;-78
2022/08/07 13:21:33;;;;;;;19.77;5.65;;;24.50;45.10;;;;;;5009548;28;87414;-77
2022/08/07 13:24:19;;;;;;;23.60;5.25;;;24.50;45.10;;;;;;5008012;28;87377;-79
2022/08/07 13:26:59;;;;;;;14.98;5.20;;;24.60;44.90;;;;;;5007766;28;89495;-79